This is the latest recevied weather packets stored in our database for station/object DH1FR-13. If no packets are shown the sender has not sent any weather packets the latest 10 day(s).
| Time | Temp. | Humidity | Pressure | Rain* | Wind** | Luminosity | Snow |
|---|---|---|---|---|---|---|---|
| 1777314005 | 12.22° C | 58% | 1023.3 hPa | 0 mm | 0 m/s | - | - |
| 1777313401 | 12.78° C | 56% | 1023.4 hPa | 0 mm | 0 m/s | - | - |
| 1777312201 | 14.44° C | 52% | 1023.5 hPa | 0 mm | 0 m/s | - | - |
| 1777311601 | 16.67° C | 42% | 1023.3 hPa | 0 mm | 0 m/s | - | - |
| 1777311001 | 17.78° C | 38% | 1023.2 hPa | 0 mm | 0 m/s | - | - |
| 1777310401 | 17.78° C | 39% | 1023.5 hPa | 0 mm | 0 m/s | - | - |
| 1777309801 | 17.78° C | 38% | 1023.4 hPa | 0 mm | 0 m/s | - | - |
| 1777309201 | 17.22° C | 39% | 1023.2 hPa | 0 mm | 0 m/s | - | - |
| 1777308601 | 16.67° C | 39% | 1023.4 hPa | 0 mm | 0 m/s | - | - |
| 1777308001 | 16.67° C | 42% | 1023.6 hPa | 0 mm | 0 m/s | - | - |
| 1777307401 | 17.22° C | 41% | 1023.6 hPa | 0 mm | 0 m/s | - | - |
| 1777306801 | 17.22° C | 41% | 1023.7 hPa | 0 mm | 0 m/s | - | - |
| 1777306201 | 17.78° C | 38% | 1023.7 hPa | 0 mm | 0 m/s | - | - |
| 1777305601 | 18.33° C | 39% | 1023.6 hPa | 0 mm | 0 m/s | - | - |
| 1777305001 | 18.33° C | 37% | 1023.6 hPa | 0 mm | 0 m/s | - | - |
| 1777304401 | 18.33° C | 36% | 1023.7 hPa | 0 mm | 0 m/s | - | - |
| 1777303801 | 18.33° C | 34% | 1023.9 hPa | 0 mm | 0 m/s | - | - |
| 1777303201 | 19.44° C | 36% | 1023.7 hPa | 0 mm | 0 m/s | - | - |
| 1777302601 | 19.44° C | 36% | 1024 hPa | 0 mm | 0 m/s | - | - |
| 1777302001 | 20° C | 36% | 1023.9 hPa | 0 mm | 0 m/s | - | - |
| 1777301401 | 19.44° C | 38% | 1024 hPa | 0 mm | 0 m/s | - | - |
| 1777300801 | 18.89° C | 40% | 1024.3 hPa | 0 mm | 0 m/s | - | - |
| 1777300201 | 19.44° C | 38% | 1024.5 hPa | 0 mm | 0 m/s | - | - |
| 1777299601 | 18.33° C | 39% | 1024.4 hPa | 0 mm | 0 m/s | - | - |
| 1777299001 | 17.78° C | 39% | 1024.6 hPa | 0 mm | 0 m/s | - | - |
* Rain latest hour (hover to see other rain measurements)
** Current wind speed in m/s (hover to see current wind gust speed)